Time;durP1;ratioP1;P1;durP2;ratioP2;P2;SDS_P1;SDS_P2;PMS_P1;PMS_P2;Temp;Humidity;BMP_temperature;BMP_pressure;BME280_temperature;BME280_humidity;BME280_pressure;Samples;Min_cycle;Max_cycle;Signal;HPM_P1;HPM_P2
2022/08/03 00:00:31;;;;;;;6.30;5.70;;;;;;;;;;10489797;28;20044;-75
2022/08/03 00:05:34;;;;;;;4.67;4.27;;;;;;;;;;10507283;28;20044;-75
2022/08/03 00:10:35;;;;;;;5.90;5.40;;;;;;;;;;10491414;28;21148;-75
2022/08/03 00:15:35;;;;;;;6.83;5.40;;;;;;;;;;10498201;28;20044;-73
2022/08/03 00:20:35;;;;;;;5.70;5.20;;;;;;;;;;10498960;28;20181;-75
2022/08/03 00:25:36;;;;;;;6.60;5.47;;;;;;;;;;10493692;28;20052;-74
2022/08/03 00:30:37;;;;;;;5.82;5.28;;;;;;;;;;10498925;28;20040;-74
2022/08/03 00:35:37;;;;;;;5.60;5.10;;;;;;;;;;10488391;28;20387;-75
2022/08/03 00:40:38;;;;;;;5.57;5.07;;;;;;;;;;10498790;28;20041;-73
2022/08/03 00:45:39;;;;;;;6.20;5.22;;;;;;;;;;10484009;28;20479;-74
2022/08/03 00:50:41;;;;;;;6.22;5.63;;;;;;;;;;10505396;28;20140;-74
2022/08/03 00:55:42;;;;;;;6.03;5.47;;;;;;;;;;10498335;28;20043;-75
2022/08/03 01:00:42;;;;;;;5.05;4.65;;;;;;;;;;10506423;28;20426;-73
2022/08/03 01:05:43;;;;;;;6.07;5.47;;;;;;;;;;10501569;28;20474;-74
2022/08/03 01:10:52;;;;;;;5.93;5.43;;;;;;;;;;10495258;28;20056;-74
2022/08/03 01:16:29;;;;;;;6.22;5.65;;;;;;;;;;10501345;28;20067;-75
2022/08/03 01:21:38;;;;;;;6.43;5.57;;;;;;;;;;10394373;28;20080;-74
2022/08/03 01:26:38;;;;;;;6.45;5.90;;;;;;;;;;10514739;28;20139;-73
2022/08/03 01:31:41;;;;;;;6.00;5.50;;;;;;;;;;10481542;28;20236;-73
2022/08/03 01:36:43;;;;;;;5.95;5.30;;;;;;;;;;10508230;28;20092;-73
2022/08/03 01:41:49;;;;;;;6.40;5.73;;;;;;;;;;10469411;28;20067;-74
2022/08/03 01:46:50;;;;;;;5.63;5.13;;;;;;;;;;10489373;28;20045;-74
2022/08/03 01:51:51;;;;;;;5.60;5.07;;;;;;;;;;10503382;28;20720;-76
2022/08/03 01:56:52;;;;;;;6.30;5.70;;;;;;;;;;10488641;28;20097;-74
2022/08/03 02:01:55;;;;;;;6.50;6.00;;;;;;;;;;10498835;28;20439;-75
2022/08/03 02:06:56;;;;;;;5.65;5.10;;;;;;;;;;10491484;28;20040;-75
2022/08/03 02:11:57;;;;;;;7.22;6.55;;;;;;;;;;10496699;28;20040;-76
2022/08/03 02:16:58;;;;;;;6.20;5.60;;;;;;;;;;10481942;28;20056;-75
2022/08/03 02:21:59;;;;;;;5.90;5.30;;;;;;;;;;10509681;28;20060;-76
2022/08/03 02:26:59;;;;;;;5.22;4.82;;;;;;;;;;10511393;28;20052;-77
2022/08/03 02:32:03;;;;;;;5.95;5.45;;;;;;;;;;10491525;28;20416;-76
2022/08/03 02:37:03;;;;;;;6.25;5.40;;;;;;;;;;10498003;28;20061;-76
2022/08/03 02:42:05;;;;;;;5.90;5.35;;;;;;;;;;10496373;28;20055;-75
2022/08/03 02:47:08;;;;;;;6.60;5.95;;;;;;;;;;10505395;28;20135;-75
2022/08/03 02:52:10;;;;;;;5.97;5.45;;;;;;;;;;10496719;28;20117;-76
2022/08/03 02:57:11;;;;;;;6.10;5.60;;;;;;;;;;10526548;28;20067;-77
2022/08/03 03:02:14;;;;;;;6.70;6.10;;;;;;;;;;10518657;28;20093;-77
2022/08/03 03:07:15;;;;;;;6.50;5.88;;;;;;;;;;10512758;28;20040;-74
2022/08/03 03:12:16;;;;;;;6.60;6.00;;;;;;;;;;10524172;28;20499;-74
2022/08/03 03:17:17;;;;;;;6.97;5.50;;;;;;;;;;10502743;28;20072;-74
2022/08/03 03:22:18;;;;;;;7.03;6.32;;;;;;;;;;10503883;28;20052;-76
2022/08/03 03:27:19;;;;;;;6.82;6.22;;;;;;;;;;10496033;28;20101;-75
2022/08/03 03:32:20;;;;;;;6.57;5.97;;;;;;;;;;10501429;28;20036;-75
2022/08/03 03:37:20;;;;;;;6.93;6.33;;;;;;;;;;10497902;28;20044;-75
2022/08/03 03:42:21;;;;;;;6.13;5.53;;;;;;;;;;10500638;28;20051;-74
2022/08/03 03:47:22;;;;;;;7.18;6.47;;;;;;;;;;10501267;28;20036;-75
2022/08/03 03:52:22;;;;;;;6.93;6.07;;;;;;;;;;10503765;28;20452;-76
2022/08/03 03:57:23;;;;;;;6.93;6.00;;;;;;;;;;10505193;28;20824;-76
2022/08/03 04:02:24;;;;;;;6.13;5.53;;;;;;;;;;10515392;28;20118;-74
2022/08/03 04:12:46;;;;;;;6.25;5.63;;;;;;;;;;10495887;28;20918;-75
2022/08/03 04:17:47;;;;;;;7.70;6.10;;;;;;;;;;10491559;28;20040;-75
2022/08/03 04:22:51;;;;;;;7.07;6.38;;;;;;;;;;10500969;28;20131;-75
2022/08/03 04:27:54;;;;;;;6.32;5.70;;;;;;;;;;10500664;28;20063;-75
2022/08/03 04:32:55;;;;;;;7.18;6.47;;;;;;;;;;10502211;28;20125;-74
2022/08/03 04:38:00;;;;;;;7.13;6.15;;;;;;;;;;10485890;28;20068;-74
2022/08/03 04:43:00;;;;;;;6.68;5.93;;;;;;;;;;10522869;28;20048;-74
2022/08/03 04:48:03;;;;;;;7.03;6.32;;;;;;;;;;10527944;28;20039;-74
2022/08/03 04:53:07;;;;;;;8.27;6.32;;;;;;;;;;10528628;28;20040;-73
2022/08/03 04:58:07;;;;;;;7.32;6.63;;;;;;;;;;10530168;28;20036;-74
2022/08/03 05:03:07;;;;;;;7.60;6.40;;;;;;;;;;10478075;28;20382;-73
2022/08/03 05:08:08;;;;;;;8.40;7.60;;;;;;;;;;10514611;28;20036;-73
2022/08/03 05:13:11;;;;;;;7.95;6.38;;;;;;;;;;10500136;28;20040;-74
2022/08/03 05:18:12;;;;;;;11.07;7.47;;;;;;;;;;10516774;28;20043;-69
2022/08/03 05:23:13;;;;;;;7.50;6.75;;;;;;;;;;10515410;28;20420;-69
2022/08/03 05:28:13;;;;;;;8.13;6.85;;;;;;;;;;10476475;28;20043;-70
2022/08/03 05:33:13;;;;;;;10.00;6.87;;;;;;;;;;10506161;28;20060;-74
2022/08/03 05:38:14;;;;;;;7.05;6.22;;;;;;;;;;10495452;28;20378;-73
2022/08/03 05:43:15;;;;;;;7.22;5.68;;;;;;;;;;10496262;28;20040;-70
2022/08/03 05:48:16;;;;;;;6.57;5.68;;;;;;;;;;10492186;28;20048;-70
2022/08/03 05:53:16;;;;;;;19.57;16.30;;;;;;;;;;10495399;28;20387;-72
2022/08/03 05:58:16;;;;;;;6.23;5.63;;;;;;;;;;10482750;28;20414;-71
2022/08/03 06:03:17;;;;;;;5.80;5.30;;;;;;;;;;10496564;28;20471;-71
2022/08/03 06:08:17;;;;;;;7.32;5.90;;;;;;;;;;10488192;28;20055;-72
2022/08/03 06:13:17;;;;;;;5.63;5.03;;;;;;;;;;10514683;28;20036;-72
2022/08/03 06:18:18;;;;;;;6.00;5.50;;;;;;;;;;10527883;28;20293;-77
2022/08/03 06:23:19;;;;;;;6.80;6.10;;;;;;;;;;10504912;28;20036;-79
2022/08/03 06:28:19;;;;;;;6.27;5.27;;;;;;;;;;10514287;28;20055;-76
2022/08/03 06:33:19;;;;;;;6.82;5.85;;;;;;;;;;10505751;28;20637;-75
2022/08/03 06:38:20;;;;;;;6.70;5.73;;;;;;;;;;10516328;28;20105;-77
2022/08/03 06:43:21;;;;;;;6.07;5.00;;;;;;;;;;10499339;28;20287;-74
2022/08/03 06:48:21;;;;;;;6.70;6.00;;;;;;;;;;10508070;28;20352;-76
2022/08/03 06:53:22;;;;;;;15.05;13.13;;;;;;;;;;10503401;28;20040;-70
2022/08/03 06:58:22;;;;;;;7.60;6.40;;;;;;;;;;10516477;28;20032;-70
2022/08/03 07:03:23;;;;;;;7.07;6.40;;;;;;;;;;10512879;28;20054;-71
2022/08/03 07:08:24;;;;;;;6.57;5.97;;;;;;;;;;10497565;28;20036;-75
2022/08/03 07:13:24;;;;;;;5.93;5.10;;;;;;;;;;10503219;28;20914;-69
2022/08/03 07:18:25;;;;;;;5.93;5.10;;;;;;;;;;10500759;28;20071;-71
2022/08/03 07:23:25;;;;;;;4.63;4.10;;;;;;;;;;10508465;28;20048;-75
2022/08/03 07:28:25;;;;;;;4.80;4.32;;;;;;;;;;10488422;28;21219;-73
2022/08/03 07:33:26;;;;;;;4.50;3.93;;;;;;;;;;10506207;28;20040;-73
2022/08/03 07:38:26;;;;;;;4.50;4.10;;;;;;;;;;10508048;28;20037;-73
2022/08/03 07:43:27;;;;;;;3.95;3.60;;;;;;;;;;10507560;28;20633;-73
2022/08/03 07:48:27;;;;;;;4.53;3.70;;;;;;;;;;10516837;28;20047;-74
2022/08/03 07:53:27;;;;;;;4.22;3.83;;;;;;;;;;10504574;28;20314;-74
2022/08/03 07:58:28;;;;;;;3.85;3.50;;;;;;;;;;10512605;28;20116;-74
2022/08/03 08:03:28;;;;;;;7.57;6.80;;;;;;;;;;10504166;28;20048;-75
2022/08/03 08:08:29;;;;;;;5.50;4.23;;;;;;;;;;10506133;28;20094;-75
2022/08/03 08:13:29;;;;;;;3.50;3.20;;;;;;;;;;10517752;28;20765;-73
2022/08/03 08:18:30;;;;;;;4.00;3.20;;;;;;;;;;10498741;28;20274;-71
2022/08/03 08:23:30;;;;;;;4.30;3.55;;;;;;;;;;10506633;28;20048;-72
2022/08/03 08:28:31;;;;;;;4.25;3.85;;;;;;;;;;10477865;28;20040;-73
2022/08/03 08:33:33;;;;;;;3.77;3.07;;;;;;;;;;10500394;28;20505;-76
2022/08/03 08:38:34;;;;;;;8.25;7.45;;;;;;;;;;10483523;28;20279;-75
2022/08/03 08:43:34;;;;;;;3.67;3.30;;;;;;;;;;10516542;28;20040;-71
2022/08/03 08:48:35;;;;;;;3.37;3.10;;;;;;;;;;10483590;28;20061;-73
2022/08/03 08:53:36;;;;;;;3.60;3.20;;;;;;;;;;10508534;28;20047;-70
2022/08/03 08:58:37;;;;;;;4.82;3.45;;;;;;;;;;10505885;28;20128;-72
2022/08/03 09:03:37;;;;;;;4.07;3.50;;;;;;;;;;10495146;28;20052;-74
2022/08/03 09:08:38;;;;;;;3.77;3.30;;;;;;;;;;10502017;28;20461;-76
2022/08/03 09:13:38;;;;;;;3.50;3.20;;;;;;;;;;10491522;28;20055;-74
2022/08/03 09:18:39;;;;;;;3.17;2.97;;;;;;;;;;10501941;28;20056;-74
2022/08/03 09:23:48;;;;;;;3.15;2.85;;;;;;;;;;10495625;28;20028;-85
2022/08/03 09:29:08;;;;;;;4.25;3.10;;;;;;;;;;10508417;28;20155;-85
2022/08/03 09:34:10;;;;;;;3.75;3.08;;;;;;;;;;10509256;28;20048;-83
2022/08/03 09:39:14;;;;;;;3.13;2.60;;;;;;;;;;10534765;28;20028;-82
2022/08/03 09:44:15;;;;;;;4.65;2.72;;;;;;;;;;10534421;28;20054;-85
2022/08/03 09:49:16;;;;;;;3.23;2.87;;;;;;;;;;10497555;28;20060;-82
2022/08/03 09:54:28;;;;;;;2.30;2.10;;;;;;;;;;10525101;28;20036;-83
2022/08/03 09:59:30;;;;;;;5.97;2.60;;;;;;;;;;10530463;28;20037;-83
2022/08/03 10:04:30;;;;;;;3.47;2.50;;;;;;;;;;10521783;28;20055;-84
2022/08/03 10:09:34;;;;;;;2.60;2.40;;;;;;;;;;10507919;28;20345;-82
2022/08/03 10:14:37;;;;;;;3.05;2.50;;;;;;;;;;10525113;28;20046;-83
2022/08/03 10:19:38;;;;;;;2.58;1.90;;;;;;;;;;10513026;28;20036;-81
2022/08/03 10:24:45;;;;;;;2.42;1.50;;;;;;;;;;10535182;28;20445;-81
2022/08/03 10:29:52;;;;;;;3.38;2.38;;;;;;;;;;10549931;28;20089;-82
2022/08/03 10:34:58;;;;;;;2.85;2.40;;;;;;;;;;10542573;28;20041;-82
2022/08/03 10:39:59;;;;;;;4.28;2.33;;;;;;;;;;10544133;28;20059;-82
2022/08/03 10:45:02;;;;;;;3.43;2.53;;;;;;;;;;10516063;28;20079;-82
2022/08/03 10:50:06;;;;;;;4.95;3.03;;;;;;;;;;10537308;28;20075;-85
2022/08/03 11:00:51;;;;;;;3.17;2.60;;;;;;;;;;10548070;28;20024;-82
2022/08/03 11:05:53;;;;;;;5.43;4.68;;;;;;;;;;10544864;28;20050;-83
2022/08/03 11:10:55;;;;;;;3.63;2.88;;;;;;;;;;10515939;28;20102;-84
2022/08/03 11:15:59;;;;;;;2.92;2.00;;;;;;;;;;10546208;28;20092;-81
2022/08/03 11:21:01;;;;;;;2.95;2.00;;;;;;;;;;10573499;28;20517;-84
2022/08/03 11:26:14;;;;;;;3.97;2.13;;;;;;;;;;10564391;28;20075;-82
2022/08/03 11:31:21;;;;;;;2.60;2.40;;;;;;;;;;10565145;28;20120;-81
2022/08/03 11:36:23;;;;;;;3.22;2.10;;;;;;;;;;10552514;28;20038;-83
2022/08/03 11:41:23;;;;;;;;;;;;;;;;;;10541763;28;20059;-81
2022/08/03 11:46:25;;;;;;;2.42;1.95;;;;;;;;;;10505489;28;19929;-82
2022/08/03 11:51:26;;;;;;;2.85;2.03;;;;;;;;;;10509448;28;20094;-81
2022/08/03 11:56:42;;;;;;;2.75;1.85;;;;;;;;;;10519644;28;20070;-81
2022/08/03 12:01:42;;;;;;;3.47;2.05;;;;;;;;;;10485476;28;20045;-81
2022/08/03 12:06:57;;;;;;;1.90;1.80;;;;;;;;;;10521564;28;20039;-80
2022/08/03 12:11:57;;;;;;;2.20;2.00;;;;;;;;;;10512193;28;20699;-80
2022/08/03 12:16:57;;;;;;;1.77;1.67;;;;;;;;;;10522332;28;20108;-82
2022/08/03 12:21:59;;;;;;;2.30;2.00;;;;;;;;;;10534684;28;20060;-83
2022/08/03 12:27:01;;;;;;;1.97;1.80;;;;;;;;;;10528492;28;20040;-80
2022/08/03 12:32:02;;;;;;;4.20;2.05;;;;;;;;;;10531749;28;20271;-81
2022/08/03 12:37:03;;;;;;;2.08;1.75;;;;;;;;;;10534582;28;20040;-81
2022/08/03 12:42:04;;;;;;;2.05;1.85;;;;;;;;;;10548921;28;20590;-82
2022/08/03 12:47:09;;;;;;;1.75;1.65;;;;;;;;;;10524170;28;20049;-81
2022/08/03 12:52:18;;;;;;;1.95;1.70;;;;;;;;;;10524560;28;20048;-81
2022/08/03 12:57:28;;;;;;;2.08;1.88;;;;;;;;;;10522476;28;20037;-82
2022/08/03 13:02:37;;;;;;;1.88;1.70;;;;;;;;;;10517873;28;20047;-81
2022/08/03 13:07:47;;;;;;;2.38;1.60;;;;;;;;;;10479629;28;20032;-81
2022/08/03 13:12:48;;;;;;;1.88;1.70;;;;;;;;;;10545137;28;20048;-83
2022/08/03 13:17:51;;;;;;;2.10;1.90;;;;;;;;;;10534424;28;20020;-80
2022/08/03 13:23:26;;;;;;;3.10;1.75;;;;;;;;;;10526084;28;20044;-82
2022/08/03 13:28:59;;;;;;;2.28;1.63;;;;;;;;;;10485268;28;20100;-83
2022/08/03 13:34:12;;;;;;;1.95;1.80;;;;;;;;;;10520322;28;20041;-82
2022/08/03 13:39:23;;;;;;;1.85;1.58;;;;;;;;;;10510583;28;20044;-81
2022/08/03 13:44:27;;;;;;;1.95;1.73;;;;;;;;;;10534349;28;20149;-81
2022/08/03 13:49:52;;;;;;;3.80;2.28;;;;;;;;;;10539583;28;20159;-83
2022/08/03 13:55:23;;;;;;;1.80;1.70;;;;;;;;;;10520978;28;20044;-83
2022/08/03 14:06:17;;;;;;;3.38;2.40;;;;;;;;;;10952819;22;20039;-83
2022/08/03 14:12:03;;;;;;;2.63;1.90;;;;;;;;;;11956086;23;20062;-81
2022/08/03 14:17:16;;;;;;;3.83;3.42;;;;;;;;;;10261750;28;20059;-82
2022/08/03 14:22:17;;;;;;;2.25;1.80;;;;;;;;;;10236699;28;20452;-82
2022/08/03 14:27:21;;;;;;;2.22;1.77;;;;;;;;;;10272686;28;20041;-81
2022/08/03 14:32:26;;;;;;;2.92;2.10;;;;;;;;;;10277109;28;20147;-82
2022/08/03 14:37:32;;;;;;;1.83;1.63;;;;;;;;;;10271814;28;20114;-82
2022/08/03 14:42:34;;;;;;;3.28;1.70;;;;;;;;;;10285918;28;20099;-81
2022/08/03 14:47:38;;;;;;;2.35;2.03;;;;;;;;;;10261558;28;20027;-80
2022/08/03 14:52:40;;;;;;;2.65;2.08;;;;;;;;;;10283759;28;20051;-83
2022/08/03 14:57:41;;;;;;;3.17;1.67;;;;;;;;;;10279610;28;20355;-82
2022/08/03 15:02:44;;;;;;;1.50;1.40;;;;;;;;;;10271426;28;20042;-80
2022/08/03 15:07:46;;;;;;;2.22;1.80;;;;;;;;;;10260081;28;20130;-81
2022/08/03 15:12:46;;;;;;;1.98;1.50;;;;;;;;;;10320618;23;20074;-85
2022/08/03 15:17:49;;;;;;;4.15;1.70;;;;;;;;;;10299387;28;20057;-83
2022/08/03 15:22:50;;;;;;;1.70;1.50;;;;;;;;;;10292878;28;20083;-84
2022/08/03 15:27:52;;;;;;;2.72;1.80;;;;;;;;;;10286135;28;20081;-82
2022/08/03 15:32:53;;;;;;;2.35;1.50;;;;;;;;;;10262497;28;20059;-83
2022/08/03 15:37:55;;;;;;;1.35;1.25;;;;;;;;;;10315843;28;20043;-82
2022/08/03 15:42:57;;;;;;;1.67;1.50;;;;;;;;;;10287826;28;20047;-82
2022/08/03 15:48:04;;;;;;;1.90;1.40;;;;;;;;;;10279306;28;20047;-83
2022/08/03 15:53:14;;;;;;;2.05;1.40;;;;;;;;;;10263157;28;20071;-82
2022/08/03 15:58:17;;;;;;;1.50;1.40;;;;;;;;;;10255297;28;20132;-81
2022/08/03 16:03:23;;;;;;;3.63;2.60;;;;;;;;;;10271084;28;20055;-82
2022/08/03 16:08:26;;;;;;;3.50;1.70;;;;;;;;;;10230945;28;20047;-83
2022/08/03 16:13:28;;;;;;;1.77;1.60;;;;;;;;;;10288769;28;20046;-84
2022/08/03 16:18:30;;;;;;;2.35;1.45;;;;;;;;;;10299528;28;20123;-83
2022/08/03 16:23:31;;;;;;;5.18;3.30;;;;;;;;;;10271925;28;20104;-82
2022/08/03 16:28:36;;;;;;;3.75;2.25;;;;;;;;;;10271891;28;20039;-83
2022/08/03 16:33:51;;;;;;;2.55;1.65;;;;;;;;;;10276738;28;20039;-83
2022/08/03 16:38:56;;;;;;;3.15;2.85;;;;;;;;;;10299266;28;20061;-84
2022/08/03 16:43:56;;;;;;;3.63;2.70;;;;;;;;;;10279473;28;20066;-86
2022/08/03 16:48:57;;;;;;;2.40;1.75;;;;;;;;;;10306547;28;20047;-86
2022/08/03 16:53:57;;;;;;;2.70;1.90;;;;;;;;;;10285531;28;20062;-82
2022/08/03 16:58:59;;;;;;;2.57;2.00;;;;;;;;;;10318268;28;20109;-83
2022/08/03 17:04:00;;;;;;;2.95;2.08;;;;;;;;;;10308071;28;20279;-85
2022/08/03 17:14:09;;;;;;;4.22;2.38;;;;;;;;;;10241765;28;19926;-82
2022/08/03 17:19:10;;;;;;;3.70;3.40;;;;;;;;;;10249836;28;20043;-72
2022/08/03 17:24:18;;;;;;;1.83;1.73;;;;;;;;;;10211976;28;20110;-76
2022/08/03 17:29:19;;;;;;;2.15;1.95;;;;;;;;;;10202802;28;20056;-74
2022/08/03 17:34:20;;;;;;;2.72;2.08;;;;;;;;;;10211295;28;20051;-74
2022/08/03 17:39:21;;;;;;;4.00;2.75;;;;;;;;;;10202135;28;20051;-79
2022/08/03 17:44:22;;;;;;;2.50;2.30;;;;;;;;;;10226143;28;20051;-79
2022/08/03 17:49:25;;;;;;;5.13;2.10;;;;;;;;;;10242067;28;20492;-81
2022/08/03 17:54:26;;;;;;;2.05;1.85;;;;;;;;;;10233087;28;20040;-83
2022/08/03 17:59:28;;;;;;;2.10;1.90;;;;;;;;;;10235317;28;20032;-84
2022/08/03 18:04:31;;;;;;;2.13;2.03;;;;;;;;;;10231356;28;20271;-83
2022/08/03 18:09:34;;;;;;;2.10;1.90;;;;;;;;;;10227752;29;20067;-83
2022/08/03 18:15:03;;;;;;;2.05;1.70;;;;;;;;;;10197965;28;20110;-82
2022/08/03 18:20:12;;;;;;;3.90;2.10;;;;;;;;;;10238721;29;20066;-82
2022/08/03 18:25:18;;;;;;;2.20;2.00;;;;;;;;;;10202811;28;20107;-79
2022/08/03 18:30:23;;;;;;;2.45;1.77;;;;;;;;;;10201305;28;20055;-85
2022/08/03 18:35:38;;;;;;;2.58;2.30;;;;;;;;;;10209937;28;20036;-81
2022/08/03 18:40:44;;;;;;;29.33;26.42;;;;;;;;;;10203526;28;20031;-80
2022/08/03 18:45:50;;;;;;;11.65;10.52;;;;;;;;;;10231323;28;20058;-80
2022/08/03 18:50:55;;;;;;;36.78;33.17;;;;;;;;;;10249655;28;20046;-82
2022/08/03 18:56:07;;;;;;;12.60;11.45;;;;;;;;;;10235832;28;20416;-82
2022/08/03 19:01:26;;;;;;;6.57;5.97;;;;;;;;;;10251733;28;20116;-84
2022/08/03 19:06:29;;;;;;;5.35;4.80;;;;;;;;;;10240022;28;20055;-82
2022/08/03 19:11:42;;;;;;;4.57;4.18;;;;;;;;;;10210671;28;20122;-83
2022/08/03 19:16:46;;;;;;;3.85;3.50;;;;;;;;;;10261980;28;20878;-84
2022/08/03 19:21:49;;;;;;;3.90;3.50;;;;;;;;;;10204595;28;20667;-81
2022/08/03 19:26:51;;;;;;;5.47;3.60;;;;;;;;;;10228777;28;20058;-79
2022/08/03 19:31:54;;;;;;;4.40;3.80;;;;;;;;;;10226637;28;20051;-81
2022/08/03 19:36:55;;;;;;;5.85;4.10;;;;;;;;;;10219830;28;20079;-79
2022/08/03 19:42:00;;;;;;;4.13;3.72;;;;;;;;;;10219040;28;20051;-80
2022/08/03 19:47:07;;;;;;;5.05;4.10;;;;;;;;;;10213445;28;20074;-74
2022/08/03 19:52:09;;;;;;;4.07;3.67;;;;;;;;;;10203798;28;20110;-76
2022/08/03 19:57:09;;;;;;;4.00;3.35;;;;;;;;;;10205889;28;20044;-74
2022/08/03 20:02:10;;;;;;;4.27;3.80;;;;;;;;;;10215355;28;20053;-76
2022/08/03 20:07:10;;;;;;;5.77;4.00;;;;;;;;;;10217601;28;20039;-75
2022/08/03 20:12:11;;;;;;;5.00;3.90;;;;;;;;;;10220894;28;20183;-76
2022/08/03 20:17:11;;;;;;;4.33;3.93;;;;;;;;;;10206576;28;20036;-75
2022/08/03 20:22:12;;;;;;;4.20;3.80;;;;;;;;;;10217767;28;20047;-75
2022/08/03 20:27:15;;;;;;;2.93;2.73;;;;;;;;;;10216334;28;20078;-75
2022/08/03 20:32:16;;;;;;;3.30;3.00;;;;;;;;;;10232725;28;20051;-75
2022/08/03 20:37:17;;;;;;;4.00;2.90;;;;;;;;;;10214033;28;20142;-74
2022/08/03 20:42:17;;;;;;;4.13;2.53;;;;;;;;;;10204676;28;20044;-73
2022/08/03 20:47:18;;;;;;;2.90;2.60;;;;;;;;;;10216352;28;20129;-76
2022/08/03 20:52:18;;;;;;;2.57;2.37;;;;;;;;;;10199863;28;20055;-74
2022/08/03 20:57:19;;;;;;;3.33;2.83;;;;;;;;;;10201919;28;20050;-75
2022/08/03 21:02:20;;;;;;;2.73;2.30;;;;;;;;;;10201398;28;20048;-75
2022/08/03 21:07:25;;;;;;;2.43;2.23;;;;;;;;;;10208418;28;20474;-74
2022/08/03 21:12:34;;;;;;;3.15;2.45;;;;;;;;;;10204414;28;20058;-74
2022/08/03 21:17:40;;;;;;;2.97;2.55;;;;;;;;;;10199771;28;20058;-74
2022/08/03 21:22:45;;;;;;;3.60;2.97;;;;;;;;;;10204821;28;20047;-74
2022/08/03 21:27:47;;;;;;;2.80;2.60;;;;;;;;;;10207080;28;20055;-75
2022/08/03 21:32:50;;;;;;;3.53;3.20;;;;;;;;;;10203789;28;20222;-74
2022/08/03 21:38:17;;;;;;;2.70;2.50;;;;;;;;;;10208253;28;20595;-74
2022/08/03 21:43:11;;;;;;;3.17;2.70;;;;;;;;;;10211842;28;20048;-76
2022/08/03 21:48:11;;;;;;;2.90;2.60;;;;;;;;;;10201310;28;20043;-75
2022/08/03 21:53:13;;;;;;;3.43;2.70;;;;;;;;;;10194182;28;20500;-74
2022/08/03 21:58:16;;;;;;;3.30;3.00;;;;;;;;;;10198812;28;20846;-74
2022/08/03 22:03:16;;;;;;;3.25;2.95;;;;;;;;;;10202280;28;20190;-74
2022/08/03 22:08:17;;;;;;;3.17;2.88;;;;;;;;;;10201477;28;20048;-74
2022/08/03 22:13:18;;;;;;;3.05;2.78;;;;;;;;;;10198697;28;20507;-74
2022/08/03 22:18:19;;;;;;;2.70;2.40;;;;;;;;;;10199623;28;20728;-74
2022/08/03 22:23:21;;;;;;;4.03;2.85;;;;;;;;;;10200683;28;20047;-75
2022/08/03 22:28:23;;;;;;;4.28;3.10;;;;;;;;;;10203634;28;20055;-76
2022/08/03 22:33:25;;;;;;;3.90;3.38;;;;;;;;;;10199745;28;21752;-74
2022/08/03 22:38:26;;;;;;;;;;;;;;;;;;10199524;28;20142;-73
2022/08/03 22:43:26;;;;;;;5.13;3.30;;;;;;;;;;10197380;28;20338;-75
2022/08/03 22:48:30;;;;;;;3.97;3.08;;;;;;;;;;10196639;28;20058;-74
2022/08/03 22:53:30;;;;;;;4.50;3.42;;;;;;;;;;10200521;28;20134;-74
2022/08/03 22:58:31;;;;;;;3.70;3.30;;;;;;;;;;10192208;28;20116;-78
2022/08/03 23:03:34;;;;;;;4.07;3.40;;;;;;;;;;10205751;28;20202;-75
2022/08/03 23:08:35;;;;;;;6.00;4.00;;;;;;;;;;10210196;28;20487;-72
2022/08/03 23:13:37;;;;;;;3.92;3.40;;;;;;;;;;10202547;28;20134;-72
2022/08/03 23:18:37;;;;;;;;;;;;;;;;;;10219983;28;20115;-72
2022/08/03 23:23:38;;;;;;;4.07;3.47;;;;;;;;;;10206570;28;20005;-73
2022/08/03 23:28:38;;;;;;;4.47;3.33;;;;;;;;;;10210920;28;20123;-73
2022/08/03 23:33:39;;;;;;;4.43;3.40;;;;;;;;;;10206852;28;20754;-73
2022/08/03 23:38:40;;;;;;;3.33;2.92;;;;;;;;;;10209288;28;20051;-73
2022/08/03 23:43:42;;;;;;;4.00;3.10;;;;;;;;;;10206426;28;20055;-72
2022/08/03 23:48:42;;;;;;;;;;;;;;;;;;10203613;28;20712;-73
2022/08/03 23:53:47;;;;;;;3.78;3.28;;;;;;;;;;10201692;28;19934;-74
2022/08/03 23:58:47;;;;;;;3.85;3.10;;;;;;;;;;10201727;28;20483;-73
